Time;durP1;ratioP1;P1;durP2;ratioP2;P2;SDS_P1;SDS_P2;PMS_P1;PMS_P2;Temp;Humidity;BMP_temperature;BMP_pressure;BME280_temperature;BME280_humidity;BME280_pressure;Samples;Min_cycle;Max_cycle;Signal;HPM_P1;HPM_P2
2023/07/23 00:00:47;;;;;;;9.48;6.30;;;18.50;99.90;;;18.01;100.00;100828.91;3965319;29;20442;-76
2023/07/23 00:02:48;;;;;;;9.35;6.35;;;18.50;99.90;;;17.98;100.00;100829.31;3980268;29;20030;-76
2023/07/23 00:04:49;;;;;;;10.68;6.45;;;18.50;99.90;;;18.02;100.00;100825.19;3996436;29;20437;-76
2023/07/23 00:06:50;;;;;;;9.20;6.00;;;18.50;99.90;;;18.04;100.00;100818.63;3965017;30;20054;-76
2023/07/23 00:08:51;;;;;;;10.40;6.93;;;18.50;99.90;;;18.00;100.00;100814.72;3979845;29;20027;-76
2023/07/23 00:10:58;;;;;;;13.48;6.13;;;18.50;99.90;;;18.04;100.00;100820.50;3995077;29;20038;-76
2023/07/23 00:12:59;;;;;;;10.25;6.45;;;18.50;99.90;;;18.04;100.00;100817.81;3964882;30;20133;-76
2023/07/23 00:15:00;;;;;;;9.52;6.50;;;18.50;99.90;;;18.08;100.00;100808.38;3994751;29;20030;-76
2023/07/23 00:17:01;;;;;;;11.40;6.25;;;18.50;99.90;;;18.08;100.00;100821.72;3995296;29;20380;-76
2023/07/23 00:19:02;;;;;;;10.40;6.07;;;18.60;99.90;;;18.09;100.00;100818.03;3995571;29;20034;-76
2023/07/23 00:21:03;;;;;;;12.05;6.53;;;18.60;99.90;;;18.10;100.00;100809.81;3992624;29;20483;-76
2023/07/23 00:23:04;;;;;;;14.82;7.10;;;18.60;99.90;;;18.08;100.00;100813.72;3972558;29;20055;-76
2023/07/23 00:25:08;;;;;;;12.48;6.63;;;18.60;99.90;;;18.08;100.00;100803.03;3979875;29;20034;-76
2023/07/23 00:27:10;;;;;;;9.95;6.63;;;18.60;99.90;;;18.13;100.00;100811.25;3980000;29;20091;-76
2023/07/23 00:29:11;;;;;;;10.52;7.45;;;18.60;99.90;;;18.20;100.00;100820.91;3995946;29;20030;-76
2023/07/23 00:31:12;;;;;;;12.70;7.00;;;18.60;99.90;;;18.20;100.00;100815.56;3986216;29;20038;-76
2023/07/23 00:33:13;;;;;;;9.50;6.38;;;18.60;99.90;;;18.22;100.00;100813.50;3995974;29;20035;-76
2023/07/23 00:35:14;;;;;;;12.23;6.75;;;18.70;99.90;;;18.20;100.00;100814.75;3995933;29;20034;-76
2023/07/23 00:37:15;;;;;;;11.80;6.88;;;18.70;99.90;;;18.21;100.00;100809.22;3964484;30;20027;-76
2023/07/23 00:39:16;;;;;;;14.55;6.82;;;18.70;99.90;;;18.17;100.00;100815.16;3989883;29;20098;-76
2023/07/23 00:41:17;;;;;;;10.77;6.22;;;18.70;99.90;;;18.21;100.00;100816.41;3995943;29;20030;-76
2023/07/23 00:43:18;;;;;;;9.70;5.90;;;18.70;99.90;;;18.24;100.00;100813.31;3996120;29;20360;-76
2023/07/23 00:45:19;;;;;;;12.43;6.88;;;18.70;99.90;;;18.16;100.00;100813.50;3996018;29;20102;-76
2023/07/23 00:47:21;;;;;;;12.95;7.32;;;18.60;99.90;;;18.13;100.00;100812.06;3995788;29;20038;-76
2023/07/23 00:49:22;;;;;;;11.73;6.22;;;18.60;99.90;;;18.04;100.00;100813.28;3991636;29;20065;-76
2023/07/23 00:51:23;;;;;;;9.85;6.63;;;18.50;99.90;;;17.96;100.00;100818.00;3975174;29;20030;-76
2023/07/23 00:53:25;;;;;;;12.90;6.85;;;18.50;99.90;;;17.83;100.00;100813.44;3968615;29;20061;-76
2023/07/23 00:55:26;;;;;;;10.05;7.40;;;18.30;99.90;;;17.77;100.00;100816.13;3968805;29;20099;-76
2023/07/23 00:57:27;;;;;;;12.52;7.28;;;18.30;99.90;;;17.67;100.00;100814.66;3990600;29;20058;-76
2023/07/23 00:59:30;;;;;;;9.95;6.55;;;18.20;99.90;;;17.63;100.00;100801.88;3989586;29;20029;-76
2023/07/23 01:01:31;;;;;;;12.13;6.40;;;18.20;99.90;;;17.57;100.00;100803.53;3974260;29;20027;-76
2023/07/23 01:03:32;;;;;;;14.43;6.75;;;18.10;99.90;;;17.48;100.00;100799.34;3986496;29;20046;-76
2023/07/23 01:05:34;;;;;;;16.63;7.05;;;18.00;99.90;;;17.46;100.00;100785.41;3985582;29;20038;-76
2023/07/23 01:07:36;;;;;;;12.23;6.35;;;18.00;99.90;;;17.44;100.00;100779.41;3990975;29;20030;-76
2023/07/23 01:09:37;;;;;;;12.88;7.53;;;17.90;99.90;;;17.45;100.00;100781.06;3988361;29;20400;-76
2023/07/23 01:11:38;;;;;;;14.50;6.82;;;17.90;99.90;;;17.40;100.00;100770.19;3990084;29;20503;-76
2023/07/23 01:13:40;;;;;;;12.57;6.95;;;17.90;99.90;;;17.42;100.00;100775.31;3969326;29;20031;-76
2023/07/23 01:15:41;;;;;;;12.90;6.30;;;17.90;99.90;;;17.39;100.00;100768.53;3987359;29;20388;-76
2023/07/23 01:17:44;;;;;;;11.48;6.50;;;17.90;99.90;;;17.39;100.00;100768.53;3968690;29;20051;-76
2023/07/23 01:19:46;;;;;;;10.30;6.15;;;17.90;99.90;;;17.39;100.00;100773.03;3974482;29;20057;-77
2023/07/23 01:21:47;;;;;;;13.75;6.68;;;17.90;99.90;;;17.33;100.00;100768.50;3987545;29;20026;-76
2023/07/23 01:23:47;;;;;;;12.18;7.05;;;17.80;99.90;;;17.29;100.00;100752.13;3987456;29;20027;-76
2023/07/23 01:25:48;;;;;;;16.10;7.95;;;17.80;99.90;;;17.22;100.00;100761.91;3971011;29;20084;-76
2023/07/23 01:27:49;;;;;;;12.57;7.32;;;17.70;99.90;;;17.13;100.00;100758.59;3969004;29;20046;-76
2023/07/23 01:29:50;;;;;;;14.38;7.43;;;17.60;99.90;;;17.18;100.00;100755.31;3972534;29;20027;-76
2023/07/23 01:31:51;;;;;;;15.23;7.50;;;17.70;99.90;;;17.07;100.00;100747.91;3971105;29;20023;-76
2023/07/23 01:33:52;;;;;;;15.70;8.15;;;17.60;99.90;;;17.08;100.00;100755.69;3990250;29;20064;-76
2023/07/23 01:35:59;;;;;;;10.80;6.80;;;17.60;99.90;;;17.05;100.00;100741.94;3971413;29;20427;-76
2023/07/23 01:38:01;;;;;;;17.88;7.85;;;17.60;99.90;;;16.98;100.00;100738.44;3976098;29;20053;-76
2023/07/23 01:40:03;;;;;;;14.43;6.90;;;17.50;99.90;;;17.01;100.00;100738.84;3971970;29;20074;-76
2023/07/23 01:42:08;;;;;;;13.68;7.72;;;17.50;99.90;;;16.99;100.00;100740.88;3990915;29;20023;-76
2023/07/23 01:44:08;;;;;;;14.98;7.43;;;17.50;99.90;;;17.02;100.00;100745.00;3959956;29;20035;-76
2023/07/23 01:46:09;;;;;;;11.80;7.28;;;17.50;99.90;;;17.02;100.00;100739.69;3993315;29;20435;-76
2023/07/23 01:48:12;;;;;;;17.00;7.25;;;17.50;99.90;;;17.00;100.00;100733.72;3973004;29;20037;-76
2023/07/23 01:50:13;;;;;;;14.57;7.43;;;17.50;99.90;;;17.02;100.00;100739.69;3973632;29;20019;-76
2023/07/23 01:52:14;;;;;;;16.13;7.90;;;17.40;99.90;;;16.97;100.00;100734.09;3975328;29;20074;-76
2023/07/23 01:54:15;;;;;;;11.98;7.45;;;17.50;99.90;;;16.99;100.00;100740.06;3974642;29;20027;-76
2023/07/23 01:56:16;;;;;;;10.98;7.55;;;17.40;99.90;;;17.01;100.00;100730.03;3991914;29;20105;-76
2023/07/23 01:58:16;;;;;;;13.13;7.10;;;17.40;99.90;;;16.96;100.00;100721.81;3990694;29;20092;-76
2023/07/23 02:00:19;;;;;;;16.33;7.40;;;17.50;99.90;;;16.96;100.00;100730.63;3993750;29;20026;-76
2023/07/23 02:02:19;;;;;;;10.80;6.90;;;17.40;99.90;;;16.94;100.00;100731.84;3986148;29;20054;-77
2023/07/23 02:04:20;;;;;;;12.85;7.20;;;17.50;99.90;;;16.93;100.00;100722.22;3990422;29;20095;-77
2023/07/23 02:06:21;;;;;;;12.10;6.85;;;17.40;99.90;;;16.93;100.00;100736.38;3975282;29;20051;-77
2023/07/23 02:08:22;;;;;;;12.57;5.60;;;17.40;99.90;;;16.91;100.00;100727.72;3992679;29;20043;-77
2023/07/23 02:10:23;;;;;;;13.43;7.00;;;17.40;99.90;;;16.90;100.00;100714.63;3993652;29;20030;-76
2023/07/23 02:12:24;;;;;;;8.70;5.55;;;17.40;99.90;;;16.92;100.00;100717.91;3972726;29;20058;-76
2023/07/23 02:14:25;;;;;;;12.95;6.65;;;17.40;99.90;;;16.91;100.00;100714.41;3974613;29;20104;-76
2023/07/23 02:16:25;;;;;;;11.00;6.07;;;17.40;99.90;;;16.91;100.00;100700.25;3988832;29;20039;-76
2023/07/23 02:18:28;;;;;;;14.82;7.25;;;17.40;99.90;;;16.95;100.00;100710.34;3986712;29;20511;-76
2023/07/23 02:20:28;;;;;;;13.10;6.90;;;17.40;99.90;;;16.90;100.00;100699.47;3993657;29;20027;-76
2023/07/23 02:22:30;;;;;;;14.40;6.50;;;17.40;99.90;;;16.87;100.00;100691.84;3968086;29;20048;-76
2023/07/23 02:24:31;;;;;;;14.55;6.65;;;17.40;99.90;;;16.86;100.00;100703.53;3944762;30;20048;-76
2023/07/23 02:26:31;;;;;;;13.43;6.50;;;17.40;99.90;;;16.88;100.00;100695.31;3978377;29;20035;-76
2023/07/23 02:28:32;;;;;;;13.90;6.57;;;17.40;99.90;;;16.90;100.00;100703.97;3960612;30;20108;-76
2023/07/23 02:30:33;;;;;;;10.27;6.43;;;17.40;99.90;;;16.86;100.00;100692.88;3976483;29;20086;-76
2023/07/23 02:32:34;;;;;;;17.13;6.78;;;17.30;99.90;;;16.86;100.00;100695.53;3960400;30;20424;-76
2023/07/23 02:34:35;;;;;;;11.52;7.00;;;17.30;99.90;;;16.84;100.00;100692.25;3978520;29;20092;-76
2023/07/23 02:36:36;;;;;;;13.45;6.68;;;17.40;99.90;;;16.83;100.00;100693.25;3962468;30;20031;-76
2023/07/23 02:38:37;;;;;;;12.90;6.30;;;17.30;99.90;;;16.81;100.00;100687.31;3974848;29;20031;-76
2023/07/23 02:40:37;;;;;;;11.95;6.55;;;17.30;99.90;;;16.79;100.00;100692.00;3978020;29;20487;-76
2023/07/23 02:42:38;;;;;;;9.93;6.10;;;17.30;99.90;;;16.78;100.00;100678.91;3975369;29;20023;-76
2023/07/23 02:44:39;;;;;;;14.15;6.60;;;17.30;99.90;;;16.78;100.00;100679.72;3973298;29;20114;-76
2023/07/23 02:46:40;;;;;;;13.35;6.15;;;17.20;99.90;;;16.71;100.00;100676.19;3976427;29;20042;-76
2023/07/23 02:48:41;;;;;;;13.95;6.70;;;17.20;99.90;;;16.77;100.00;100682.56;3960221;30;20032;-76
2023/07/23 02:50:42;;;;;;;11.98;5.65;;;17.20;99.90;;;16.73;100.00;100670.66;3959845;30;20585;-76
2023/07/23 02:52:42;;;;;;;12.45;5.90;;;17.20;99.90;;;16.74;100.00;100672.31;3974415;29;20035;-76
2023/07/23 02:54:43;;;;;;;13.80;7.00;;;17.20;99.90;;;16.71;100.00;100660.22;3974690;29;20034;-76
2023/07/23 02:56:44;;;;;;;16.17;6.53;;;17.20;99.90;;;16.67;100.00;100663.44;3955060;30;20531;-76
2023/07/23 02:58:45;;;;;;;13.75;6.78;;;17.10;99.90;;;16.68;100.00;100662.44;3977710;29;20450;-76
2023/07/23 03:00:46;;;;;;;10.90;6.28;;;17.10;99.90;;;16.64;100.00;100653.19;3978019;29;20023;-76
2023/07/23 03:02:48;;;;;;;12.23;6.80;;;17.10;99.90;;;16.61;100.00;100651.75;3973913;29;20034;-76
2023/07/23 03:04:49;;;;;;;15.73;6.25;;;17.10;99.90;;;16.66;100.00;100657.31;3957729;30;20480;-76
2023/07/23 03:06:50;;;;;;;12.02;7.50;;;17.10;99.90;;;16.68;100.00;100657.13;3955759;30;20116;-76
2023/07/23 03:08:50;;;;;;;14.38;7.00;;;17.10;99.90;;;16.68;100.00;100665.09;3973307;29;20522;-76
2023/07/23 03:10:51;;;;;;;16.75;7.10;;;17.10;99.90;;;16.65;100.00;100653.00;3974845;29;20451;-76
2023/07/23 03:12:52;;;;;;;13.55;6.85;;;17.20;99.90;;;16.70;100.00;100650.56;3977375;29;20027;-76
2023/07/23 03:14:53;;;;;;;17.83;7.30;;;17.10;99.90;;;16.69;100.00;100653.44;3977679;29;20023;-76
2023/07/23 03:16:54;;;;;;;19.98;7.07;;;17.10;99.90;;;16.66;100.00;100653.84;3977087;29;20022;-76
2023/07/23 03:18:55;;;;;;;12.80;7.18;;;17.10;99.90;;;16.67;100.00;100650.13;3975030;29;20023;-76
2023/07/23 03:20:56;;;;;;;18.88;6.75;;;17.10;99.90;;;16.68;100.00;100646.47;3960683;30;20090;-76
2023/07/23 03:22:56;;;;;;;14.07;6.80;;;17.10;99.90;;;16.63;100.00;100651.56;3982828;29;20450;-76
2023/07/23 03:24:57;;;;;;;13.60;6.78;;;17.10;99.90;;;16.65;100.00;100649.50;3992660;29;20035;-76
2023/07/23 03:26:58;;;;;;;15.57;6.90;;;17.10;99.90;;;16.65;100.00;100647.69;3975454;29;20580;-76
2023/07/23 03:28:59;;;;;;;12.95;5.78;;;17.10;99.90;;;16.65;100.00;100647.69;3989842;29;20453;-76
2023/07/23 03:31:00;;;;;;;14.07;6.57;;;17.10;99.90;;;16.66;100.00;100648.50;3976272;29;20023;-76
2023/07/23 03:33:01;;;;;;;16.35;6.03;;;17.10;99.90;;;16.68;100.00;100644.63;3987598;29;20034;-76
2023/07/23 03:35:02;;;;;;;13.50;6.60;;;17.10;99.90;;;16.66;100.00;100646.66;3976318;29;20052;-76
2023/07/23 03:37:03;;;;;;;13.98;6.72;;;17.10;99.90;;;16.64;100.00;100637.22;3991892;29;20491;-76
2023/07/23 03:39:04;;;;;;;13.82;6.95;;;17.10;99.90;;;16.69;100.00;100640.13;3994936;29;20028;-76
2023/07/23 03:41:05;;;;;;;13.82;6.60;;;17.20;99.90;;;16.73;100.00;100633.34;3996710;29;20041;-76
2023/07/23 03:43:05;;;;;;;13.38;7.50;;;17.20;99.90;;;16.76;100.00;100633.78;3980392;29;20057;-76
2023/07/23 03:45:08;;;;;;;14.70;7.25;;;17.20;99.90;;;16.78;100.00;100631.78;3996585;29;20034;-76
2023/07/23 03:47:17;;;;;;;15.13;6.32;;;17.20;99.90;;;16.77;100.00;100630.13;3965445;29;20547;-76
2023/07/23 03:49:18;;;;;;;15.98;6.55;;;17.20;99.90;;;16.78;100.00;100636.28;3988729;29;20042;-76
2023/07/23 03:51:20;;;;;;;15.90;7.07;;;17.30;99.90;;;16.80;100.00;100640.38;3980329;29;20121;-76
2023/07/23 03:53:20;;;;;;;19.30;6.88;;;17.30;99.90;;;16.82;100.00;100638.31;3996218;29;20042;-76
2023/07/23 03:55:21;;;;;;;13.80;6.72;;;17.30;99.90;;;16.87;100.00;100641.22;3996192;29;20060;-76
2023/07/23 03:57:22;;;;;;;16.30;6.82;;;17.30;99.90;;;16.90;100.00;100638.16;3979967;29;20512;-76
2023/07/23 03:59:36;;;;;;;14.50;6.70;;;17.30;99.90;;;16.92;100.00;100640.63;3993380;29;20033;-76
2023/07/23 04:01:37;;;;;;;12.68;5.82;;;17.40;99.90;;;16.94;100.00;100641.22;3995867;29;20035;-76
2023/07/23 04:03:37;;;;;;;15.45;5.85;;;17.40;99.90;;;16.99;100.00;100636.94;3996205;29;20045;-76
2023/07/23 04:05:38;;;;;;;10.38;5.20;;;17.40;99.90;;;16.98;100.00;100634.50;3996314;29;20041;-76
2023/07/23 04:07:39;;;;;;;11.93;4.60;;;17.40;99.90;;;17.02;100.00;100633.88;3979833;29;20031;-76
2023/07/23 04:09:40;;;;;;;9.88;5.18;;;17.50;99.90;;;17.03;100.00;100635.53;3996184;29;20045;-76
2023/07/23 04:11:41;;;;;;;8.93;4.15;;;17.50;99.90;;;17.03;100.00;100630.19;3996257;29;20100;-76
2023/07/23 04:13:41;;;;;;;9.98;4.18;;;17.50;99.90;;;17.06;100.00;100639.63;3979438;29;20034;-76
2023/07/23 04:15:42;;;;;;;10.10;4.28;;;17.50;99.90;;;17.10;100.00;100635.56;3995205;29;20034;-76
2023/07/23 04:17:43;;;;;;;6.72;3.67;;;17.50;99.90;;;17.12;100.00;100630.84;3996262;29;20029;-76
2023/07/23 04:19:44;;;;;;;9.20;4.63;;;17.60;99.90;;;17.15;100.00;100631.25;3979440;29;20027;-76
2023/07/23 04:21:45;;;;;;;9.80;3.80;;;17.60;99.90;;;17.19;100.00;100625.53;3990954;29;20034;-76
2023/07/23 04:23:47;;;;;;;12.10;5.07;;;17.60;99.90;;;17.15;100.00;100627.78;3981800;29;20126;-76
2023/07/23 04:25:48;;;;;;;7.85;4.20;;;17.60;99.90;;;17.17;100.00;100631.88;3979649;29;20035;-76
2023/07/23 04:27:49;;;;;;;11.82;4.68;;;17.60;99.90;;;17.21;100.00;100626.13;3994817;29;20039;-76
2023/07/23 04:29:50;;;;;;;9.27;4.18;;;17.60;99.90;;;17.20;100.00;100624.53;3987943;29;20100;-76
2023/07/23 04:31:50;;;;;;;9.25;4.20;;;17.70;99.90;;;17.21;100.00;100626.13;3979682;29;20086;-76
2023/07/23 04:33:52;;;;;;;12.65;4.43;;;17.70;99.90;;;17.28;100.00;100634.97;3993124;29;20531;-76
2023/07/23 04:35:53;;;;;;;9.52;4.03;;;17.70;99.90;;;17.27;100.00;100636.81;3977726;29;20041;-75
2023/07/23 04:37:54;;;;;;;9.75;4.38;;;17.70;99.90;;;17.27;100.00;100636.00;3995617;29;20026;-76
2023/07/23 04:39:55;;;;;;;10.07;4.07;;;17.70;99.90;;;17.25;100.00;100628.22;3986263;29;20031;-76
2023/07/23 04:41:56;;;;;;;10.10;3.92;;;17.70;99.90;;;17.27;100.00;100639.50;3990987;29;20132;-76
2023/07/23 04:43:58;;;;;;;12.65;4.63;;;17.70;99.90;;;17.27;100.00;100636.00;3994113;29;20030;-76
2023/07/23 04:45:58;;;;;;;11.73;4.63;;;17.70;99.90;;;17.27;100.00;100636.00;3996054;29;20047;-76
2023/07/23 04:47:59;;;;;;;11.98;4.78;;;17.80;99.90;;;17.28;100.00;100637.66;3979317;29;20026;-76
2023/07/23 04:50:00;;;;;;;9.20;4.15;;;17.80;99.90;;;17.28;100.00;100632.31;3995828;29;20030;-75
2023/07/23 04:52:02;;;;;;;6.68;3.85;;;17.80;99.90;;;17.27;100.00;100636.81;3979368;29;20027;-76
2023/07/23 04:54:03;;;;;;;7.60;4.15;;;17.80;99.90;;;17.33;100.00;100630.69;3986624;29;20499;-76
2023/07/23 04:56:05;;;;;;;12.27;4.32;;;17.80;99.90;;;17.32;100.00;100629.06;3995812;29;20041;-75
2023/07/23 04:58:06;;;;;;;8.35;4.25;;;17.80;99.90;;;17.32;100.00;100630.91;3995635;29;20035;-76
2023/07/23 05:00:07;;;;;;;11.23;4.13;;;17.70;99.90;;;17.31;100.00;100619.41;3971039;29;20028;-76
2023/07/23 05:02:08;;;;;;;7.95;4.05;;;17.80;99.90;;;17.35;100.00;100627.84;3992714;29;20649;-75
2023/07/23 05:04:10;;;;;;;10.10;4.32;;;17.80;99.90;;;17.35;100.00;100622.50;3973219;29;20031;-75
2023/07/23 05:06:10;;;;;;;8.75;3.80;;;17.80;99.90;;;17.36;100.00;100629.44;3994815;29;20105;-76
2023/07/23 05:08:11;;;;;;;10.70;3.58;;;17.80;99.90;;;17.30;100.00;100616.94;3989560;29;20032;-76
2023/07/23 05:10:12;;;;;;;10.50;3.42;;;17.80;99.90;;;17.33;100.00;100617.34;3995650;29;20061;-76
2023/07/23 05:12:13;;;;;;;9.05;4.05;;;17.80;99.90;;;17.32;100.00;100613.06;3979280;29;20027;-76
2023/07/23 05:14:14;;;;;;;9.40;3.55;;;17.80;99.90;;;17.36;100.00;100614.28;3979182;29;20031;-76
2023/07/23 05:16:15;;;;;;;8.88;3.83;;;17.80;99.90;;;17.35;100.00;100609.97;3977315;29;20022;-76
2023/07/23 05:18:16;;;;;;;7.45;3.42;;;17.80;99.90;;;17.40;100.00;100610.19;3979104;29;20573;-75
2023/07/23 05:20:17;;;;;;;7.15;3.17;;;17.80;99.90;;;17.40;100.00;100620.84;3977512;29;20084;-76
2023/07/23 05:22:18;;;;;;;10.88;4.40;;;17.90;99.90;;;17.42;100.00;100616.13;3994281;29;20066;-76
2023/07/23 05:24:19;;;;;;;10.23;3.85;;;17.90;99.90;;;17.44;100.00;100608.75;3991943;29;20050;-76
2023/07/23 05:26:19;;;;;;;10.27;4.18;;;17.90;99.90;;;17.43;100.00;100617.78;3995953;29;20038;-76
2023/07/23 05:28:20;;;;;;;7.05;3.70;;;17.90;99.90;;;17.40;100.00;100615.53;3974698;29;20050;-76
2023/07/23 05:30:21;;;;;;;8.45;3.72;;;17.90;99.90;;;17.45;100.00;100621.06;3982301;29;20045;-76
2023/07/23 05:32:22;;;;;;;10.50;3.40;;;17.90;99.90;;;17.44;100.00;100611.41;3996085;29;20029;-76
2023/07/23 05:34:23;;;;;;;8.48;3.97;;;17.90;99.90;;;17.43;100.00;100614.28;3997302;29;20121;-76
2023/07/23 05:36:24;;;;;;;9.18;3.65;;;17.90;99.90;;;17.47;100.00;100621.66;3981995;29;20039;-76
2023/07/23 05:38:28;;;;;;;8.63;3.50;;;17.90;99.90;;;17.48;100.00;100619.81;3966734;30;20081;-76
2023/07/23 05:40:30;;;;;;;7.43;3.42;;;17.90;99.90;;;17.49;100.00;100616.97;3994855;29;20430;-76
2023/07/23 05:42:31;;;;;;;7.88;3.22;;;18.00;99.90;;;17.53;100.00;100615.53;3966782;29;20523;-76
2023/07/23 05:44:32;;;;;;;9.02;3.40;;;18.00;99.90;;;17.54;100.00;100625.22;3996949;29;20038;-76
2023/07/23 05:46:33;;;;;;;9.95;3.10;;;18.00;99.90;;;17.51;100.00;100611.41;3981778;29;20030;-75
2023/07/23 05:48:34;;;;;;;7.28;3.50;;;18.00;99.90;;;17.57;100.00;100627.47;3979914;29;20038;-75
2023/07/23 05:50:35;;;;;;;7.32;3.38;;;18.00;99.90;;;17.57;100.00;100616.78;3972824;29;20119;-76
2023/07/23 05:52:35;;;;;;;6.68;3.47;;;18.00;99.90;;;17.57;100.00;100627.47;3978366;29;20462;-76
2023/07/23 05:54:36;;;;;;;9.77;3.63;;;18.00;99.90;;;17.56;100.00;100617.03;3981931;29;20035;-76
2023/07/23 05:56:37;;;;;;;8.82;4.00;;;18.10;99.90;;;17.57;100.00;100615.97;3981946;29;20529;-76
2023/07/23 05:58:38;;;;;;;13.32;3.58;;;18.10;99.90;;;17.62;100.00;100624.19;3996596;29;20027;-76
2023/07/23 06:00:39;;;;;;;6.95;3.05;;;18.10;99.90;;;17.65;100.00;100624.59;3998026;29;20088;-76
2023/07/23 06:02:40;;;;;;;8.88;3.58;;;18.10;99.90;;;17.63;100.00;100609.81;3996477;29;20030;-75
2023/07/23 06:04:41;;;;;;;9.27;3.38;;;18.10;99.90;;;17.64;100.00;100611.47;3977309;29;20030;-76
2023/07/23 06:06:42;;;;;;;6.65;3.78;;;18.10;99.90;;;17.62;100.00;100605.53;3973285;29;20553;-76
2023/07/23 06:08:43;;;;;;;11.23;3.90;;;18.10;99.90;;;17.62;100.00;100609.00;3991662;29;20034;-76
2023/07/23 06:10:44;;;;;;;8.80;3.83;;;18.10;99.90;;;17.65;100.00;100605.91;3992680;29;20483;-76
2023/07/23 06:12:44;;;;;;;9.38;3.85;;;18.10;99.90;;;17.72;100.00;100616.59;3992999;29;20031;-76
2023/07/23 06:14:45;;;;;;;11.27;3.30;;;18.10;99.90;;;17.71;100.00;100611.47;3990654;29;20034;-76
2023/07/23 06:16:46;;;;;;;9.15;3.85;;;18.20;99.90;;;17.76;100.00;100617.00;3974659;29;20027;-76
2023/07/23 06:18:47;;;;;;;10.40;4.05;;;18.20;99.90;;;17.74;100.00;100608.41;3990054;29;20027;-76
2023/07/23 06:20:48;;;;;;;10.95;4.35;;;18.20;99.90;;;17.71;100.00;100616.81;3981604;29;20126;-76
2023/07/23 06:22:49;;;;;;;7.72;3.13;;;18.20;99.90;;;17.73;100.00;100615.56;3986364;29;20063;-76
2023/07/23 06:24:50;;;;;;;10.35;3.45;;;18.20;99.90;;;17.79;100.00;100617.44;3981389;29;20037;-76
2023/07/23 06:26:51;;;;;;;8.35;3.50;;;18.20;99.90;;;17.77;100.00;100616.00;3981503;29;20039;-76
2023/07/23 06:28:52;;;;;;;10.25;3.42;;;18.20;99.90;;;17.77;100.00;100614.13;3991039;29;20056;-76
2023/07/23 06:30:54;;;;;;;6.93;2.85;;;18.20;99.90;;;17.77;100.00;100613.31;3990127;29;20064;-76
2023/07/23 06:32:54;;;;;;;14.48;3.72;;;18.20;99.90;;;17.78;100.00;100622.94;3981353;29;20030;-76
2023/07/23 06:34:55;;;;;;;12.73;4.22;;;18.20;99.90;;;17.80;100.00;100632.38;3997339;29;20452;-76
2023/07/23 06:36:56;;;;;;;9.68;4.00;;;18.20;99.90;;;17.83;100.00;100628.50;3980874;29;20101;-76
2023/07/23 06:38:57;;;;;;;9.68;3.38;;;18.20;99.90;;;17.84;100.00;100622.13;3996863;29;20031;-76
2023/07/23 06:40:58;;;;;;;8.45;3.35;;;18.30;99.90;;;17.85;100.00;100629.13;3997420;29;20403;-76
2023/07/23 06:42:59;;;;;;;10.13;3.28;;;18.30;99.90;;;17.86;100.00;100620.09;3981169;29;20030;-76
2023/07/23 06:44:59;;;;;;;8.88;3.50;;;18.30;99.90;;;17.84;100.00;100617.63;3997095;29;20042;-76
2023/07/23 06:47:00;;;;;;;9.07;3.20;;;18.30;99.90;;;17.84;100.00;100612.28;3992001;29;20034;-76
2023/07/23 06:49:01;;;;;;;7.90;3.13;;;18.30;99.90;;;17.87;100.00;100611.03;3978209;29;20034;-76
2023/07/23 06:51:02;;;;;;;9.10;3.63;;;18.30;99.90;;;17.88;100.00;100620.69;3975427;29;20102;-76
2023/07/23 06:53:04;;;;;;;11.43;4.20;;;18.30;99.90;;;17.91;100.00;100612.28;3996954;29;20031;-76
2023/07/23 06:55:05;;;;;;;12.93;4.28;;;18.30;99.90;;;17.92;100.00;100621.94;3995546;29;20034;-76
2023/07/23 06:57:07;;;;;;;9.57;3.95;;;18.30;99.90;;;17.94;100.00;100618.03;3990657;29;20043;-76
2023/07/23 06:59:07;;;;;;;9.25;3.78;;;18.30;99.90;;;17.92;100.00;100616.59;3980896;29;20168;-76
2023/07/23 07:01:09;;;;;;;10.82;3.72;;;18.40;99.90;;;17.97;100.00;100622.13;3981043;29;20026;-76
2023/07/23 07:03:10;;;;;;;10.23;3.65;;;18.40;99.90;;;18.02;100.00;100625.00;3992748;29;20063;-76
2023/07/23 07:05:11;;;;;;;9.38;3.78;;;18.40;99.90;;;18.01;100.00;100626.03;3979796;29;20076;-76
2023/07/23 07:07:11;;;;;;;11.57;4.47;;;18.50;99.90;;;17.99;100.00;100634.25;3976812;29;20042;-76
2023/07/23 07:09:12;;;;;;;12.20;4.53;;;18.50;99.90;;;18.03;100.00;100637.31;3980510;29;20039;-76
2023/07/23 07:11:13;;;;;;;9.88;4.68;;;18.50;99.90;;;18.00;100.00;100633.22;3995921;29;20038;-76
2023/07/23 07:13:14;;;;;;;9.13;4.13;;;18.50;99.90;;;18.03;100.00;100638.16;3980361;29;20081;-76
2023/07/23 07:15:15;;;;;;;11.48;3.75;;;18.50;99.90;;;18.03;100.00;100630.13;3996776;29;20035;-76
2023/07/23 07:17:16;;;;;;;15.85;4.45;;;18.50;99.90;;;18.05;100.00;100635.25;3994796;29;20022;-76
2023/07/23 07:19:17;;;;;;;11.75;4.40;;;18.50;99.90;;;18.06;100.00;100631.56;3974221;29;20030;-76
2023/07/23 07:21:17;;;;;;;11.27;3.97;;;18.50;99.90;;;18.05;100.00;100621.91;3996692;29;20427;-76
2023/07/23 07:23:18;;;;;;;12.32;4.10;;;18.60;99.90;;;18.10;100.00;100622.09;3967597;29;20046;-76
2023/07/23 07:25:19;;;;;;;10.73;4.07;;;18.60;99.90;;;18.13;100.00;100622.50;3978956;29;20031;-76
2023/07/23 07:27:20;;;;;;;8.60;4.00;;;18.60;99.90;;;18.16;100.00;100626.59;3981831;29;20031;-76
2023/07/23 07:29:21;;;;;;;13.63;4.00;;;18.70;99.90;;;18.23;100.00;100627.44;3965527;30;20116;-76
2023/07/23 07:31:22;;;;;;;9.70;4.43;;;18.70;99.90;;;18.21;100.00;100624.16;3977632;29;20501;-76
2023/07/23 07:33:23;;;;;;;12.30;4.00;;;18.70;99.90;;;18.27;100.00;100628.66;3957064;30;20042;-76
2023/07/23 07:35:23;;;;;;;12.52;4.93;;;18.70;99.90;;;18.27;100.00;100628.66;3972548;29;20407;-76
2023/07/23 07:37:25;;;;;;;9.77;3.95;;;18.70;99.90;;;18.31;100.00;100631.75;3970682;29;20034;-76
2023/07/23 07:39:26;;;;;;;8.23;4.18;;;18.70;99.90;;;18.35;100.00;100630.28;3957893;30;20373;-76
2023/07/23 07:41:27;;;;;;;8.88;4.38;;;18.80;99.90;;;18.41;100.00;100624.94;3977443;29;20061;-76
2023/07/23 07:43:28;;;;;;;10.50;3.83;;;18.80;99.90;;;18.52;100.00;100626.97;3974947;29;20030;-76
2023/07/23 07:45:29;;;;;;;7.20;4.35;;;18.90;99.90;;;18.60;100.00;100640.13;3956634;30;20028;-76
2023/07/23 07:47:30;;;;;;;13.40;5.05;;;19.00;99.90;;;18.62;100.00;100638.03;3972127;29;20034;-76
2023/07/23 07:49:30;;;;;;;14.00;5.55;;;19.00;99.90;;;18.67;100.00;100629.38;3971244;29;20066;-76
2023/07/23 07:51:31;;;;;;;10.32;4.40;;;19.00;99.90;;;18.71;100.00;100627.94;3960052;30;20492;-76
2023/07/23 07:53:35;;;;;;;11.20;4.70;;;19.10;99.90;;;18.78;100.00;100640.25;3974557;29;20035;-76
2023/07/23 07:55:41;;;;;;;;;;;19.10;99.90;;;18.73;100.00;100636.56;3974820;29;20031;-76
2023/07/23 07:57:42;;;;;;;8.20;4.82;;;19.20;99.90;;;18.75;100.00;100632.66;3972437;29;19920;-76
2023/07/23 07:59:43;;;;;;;15.38;5.18;;;19.20;99.90;;;18.75;100.00;100632.66;3973893;29;20023;-76
2023/07/23 08:01:45;;;;;;;7.35;4.80;;;19.20;99.90;;;18.78;100.00;100626.91;3943447;30;20564;-76
2023/07/23 08:03:46;;;;;;;13.55;5.38;;;19.30;99.90;;;18.86;100.00;100628.50;3976669;29;20495;-76
2023/07/23 08:05:47;;;;;;;11.25;5.05;;;19.30;99.90;;;18.89;100.00;100632.59;3977074;29;20034;-76
2023/07/23 08:07:49;;;;;;;11.18;5.15;;;19.30;99.90;;;18.82;100.00;100639.84;3957918;30;20038;-76
2023/07/23 08:09:54;;;;;;;12.07;5.38;;;19.30;99.90;;;18.76;100.00;100644.97;3960223;29;20039;-76
2023/07/23 08:11:59;;;;;;;9.85;4.30;;;19.30;99.90;;;18.76;100.00;100646.81;3975134;29;20023;-76
2023/07/23 08:14:01;;;;;;;12.75;4.75;;;19.20;99.90;;;18.75;100.00;100634.50;3957180;30;20040;-76
2023/07/23 08:16:02;;;;;;;12.27;5.25;;;19.20;99.90;;;18.76;100.00;100642.31;3954015;30;20097;-76